x

La Perouse Bank (46206) Wave Buoy

3:00 - Fri 30th Sep 2016 All times are PDT. -7 hours from GMT.

  • Sig Wave height 4.3ft
  • Peak Period 9s
  • Wind
    2mph, 4mph gusts
  • Sea Temp 58°f
  • Air Temp 55°f
  • Sea Pressure 1015.8mb
  • La Perouse Bank
  • La Perouse Bank

More Historic Weather Station data

Upgrade to MSW Pro to gain access to the past 30 days of data for over 8000 Wavebouys and Weather Stations around the globe.

Join Pro

Comparision Forecast

View Surf forecast
   
ven. 09/30 3:00 4.5ft 9s 2 4 mph 1015.8mb 58f 55f
2:00 4.5ft 9s 4 7 mph 1016.1mb 58f 54f
1:00 3.5ft 10s 4
mph
1016.4mb 58f 54f
12:00 3.5ft 10s 7 9 mph 1016.9mb 58f 54f
11:00 3.5ft 10s 4 7 mph 1017mb 57f 54f
10:00 4ft 10s 4
mph
1017.3mb 57f 54f
9:00 4ft 10s 7 9 mph 1017.4mb 57f 54f
8:00 4.5ft 11s 4 7 mph 1017.5mb 57f 54f
7:00 4.5ft 11s 4 7 mph 1017.6mb 57f 53f
6:00 4.5ft 10s 7 9 mph 1017.7mb 57f 53f
5:00 4.5ft 12s 2 4 mph 1017.6mb 57f 54f
4:00 4.5ft 9s 4
mph
1017.7mb 57f 54f
3:00 4.5ft 9s 4 7 mph 1017.7mb 56f 54f
2:00 5ft 9s 7 9 mph 1017.7mb 56f 55f
1:00 4.5ft 9s 9 11 mph 1017.6mb 56f 55f
12:00 4.5ft 10s 11 13 mph 1017.8mb 57f 55f
jeu. 09/29 11:00 5.5ft 10s 11 13 mph 1018.1mb 57f 55f
10:00 5ft 10s 9 13 mph 1018.2mb 57f 55f
9:00 6ft 10s 9 13 mph 1018.6mb 57f 55f
8:00 5.5ft 10s 11 13 mph 1018.7mb 57f 55f
7:00 6ft 10s 9 11 mph 1018.9mb 57f 55f
6:00 5ft 11s 11 13 mph 1018.8mb 57f 56f
5:00 5ft 11s 11 13 mph 1019mb 58f 55f
4:00 4.5ft 10s 11 13 mph 1019.1mb 57f 56f
3:00 4.5ft 12s 11 13 mph 1019.2mb 58f 56f
2:00 4.5ft 8s 7 9 mph 1019.4mb 58f 55f
1:00 4.5ft 8s 7 9 mph 1019.5mb 58f 55f
12:00 4.5ft 10s 7 9 mph 1019.5mb 58f 54f
11:00 4.5ft 8s 7 9 mph 1019.6mb 57f 54f
10:00 4.5ft 8s 9 11 mph 1019.4mb 57f 54f
9:00 4ft 8s 9 11 mph 1019.2mb 56f 55f
8:00 3.5ft 8s 11 13 mph 1019mb 57f 54f
7:00 3.5ft 8s 11 13 mph 1018.9mb 57f 54f
6:00 3.5ft 8s 11 13 mph 1018.8mb 57f 54f
5:00 3.5ft 8s 11 13 mph 1018.6mb 57f 54f
4:00 3.5ft 8s 13 16 mph 1018.6mb 57f 54f
3:00 3.5ft 8s 13 16 mph 1018.6mb 57f 54f
2:00 3.5ft 8s 13 18 mph 1018.6mb 57f 54f
1:00 3.5ft 8s 16 18 mph 1018.5mb 57f 54f
12:00 3.5ft 8s 13 16 mph 1018.7mb 57f 54f
mer. 09/28 11:00 3.5ft 8s 13 16 mph 1019mb 57f 54f
10:00 3.5ft 8s 11 13 mph 1019.1mb 57f 54f
9:00 4.5ft 9s 16 20 mph 1019mb 57f 55f
8:00 4.5ft 8s 18 20 mph 1019.1mb 57f 55f
7:00 4.5ft 8s 20 22 mph 1019.2mb 57f 55f
6:00 4.5ft 7s 18 20 mph 1019.4mb 56f 55f
5:00 4.5ft 7s 18 22 mph 1019.5mb 56f 55f
4:00 4.5ft 8s 18 20 mph 1019.7mb 56f 55f
3:00 4.5ft 9s 13 18 mph 1020.2mb 56f 54f
2:00 4.5ft 8s 13 16 mph 1020.4mb 56f 54f
1:00 4.5ft 8s 13 16 mph 1020.7mb 56f 54f
12:00 4.5ft 8s 11 13 mph 1020.9mb 56f 53f
11:00 4.5ft 9s 13
mph
1020.8mb 56f 53f
10:00 5ft 7s 13 16 mph 1021mb 56f 53f
9:00 5ft 8s 16 18 mph 1020.9mb 56f 53f
8:00 5.5ft 8s 11 13 mph 1020.9mb 56f 53f
7:00 5.5ft 10s 13 18 mph 1020.9mb 56f 53f
6:00 6ft 8s 11 13 mph 1020.8mb 56f 53f
5:00 5.5ft 7s 13 16 mph 1020.9mb 56f 53f
4:00 5.5ft 7s 13 18 mph 1020.8mb 56f 54f
3:00 5.5ft 7s 11 13 mph 1021.1mb 56f 54f
2:00 6ft 10s 13 18 mph 1021.1mb 56f 54f
1:00 5.5ft 9s 13
mph
1021.4mb 55f 54f
12:00 6ft 7s 11 13 mph 1021.5mb 55f 54f
mar. 09/27 11:00 6ft 10s 13 18 mph 1021.3mb 55f 54f
10:00 6ft 10s 16 18 mph 1021.6mb 54f 54f
9:00 6.5ft 9s 16 18 mph 1021.8mb 54f 54f
8:00 6ft 10s 18 20 mph 1021.9mb 54f 54f
7:00 6.5ft 6s 18 20 mph 1022mb 54f 54f
6:00  -   -  18
mph
1022.3mb 54f 55f
5:00 7ft 10s 18 22 mph 1022.5mb 55f 55f
4:00 7ft 9s 18 20 mph 1023mb 55f 55f
3:00 7ft 10s 18 25 mph 1023.2mb 55f 55f
2:00 7ft 8s 18 22 mph 1023.3mb 55f 55f
1:00 7ft 10s 18 22 mph 1023.6mb 55f 55f
12:00 7ft 10s 18 22 mph 1023.5mb 55f 54f
11:00 7ft 11s 18 20 mph 1023.9mb 54f 54f
10:00 7.5ft 9s 18 20 mph 1023.9mb 54f 54f
9:00 7.5ft 10s 16 20 mph 1023.8mb 53f 54f
8:00 8ft 7s 20 25 mph 1023.4mb 53f 54f
7:00 8.5ft 10s 20 25 mph 1023mb 53f 54f
6:00 8ft 10s 22 29 mph 1022.5mb 53f 54f
5:00 9ft 10s 22 27 mph 1022.3mb 54f 54f
4:00 8.5ft 10s 25 29 mph 1021.9mb 54f 55f
3:00 8.5ft 11s 25 29 mph 1021.6mb 54f 55f
2:00 8ft 11s 25 31 mph 1021.2mb 54f 55f
1:00 7ft 11s 25 31 mph 1020.6mb 54f 55f